sensor_id;sensor_type;location;lat;lon;timestamp;temperature;humidity
4461;DHT22;2243;48.812;9.232;2023-05-02T00:00:25;11.10;99.90
4461;DHT22;2243;48.812;9.232;2023-05-02T00:02:56;11.10;99.90
4461;DHT22;2243;48.812;9.232;2023-05-02T00:05:28;11.00;99.90
4461;DHT22;2243;48.812;9.232;2023-05-02T00:07:59;11.00;99.90
4461;DHT22;2243;48.812;9.232;2023-05-02T00:10:30;11.00;99.90
4461;DHT22;2243;48.812;9.232;2023-05-02T00:13:01;11.00;99.90
4461;DHT22;2243;48.812;9.232;2023-05-02T00:15:32;11.00;99.90
4461;DHT22;2243;48.812;9.232;2023-05-02T00:18:03;11.00;99.90
4461;DHT22;2243;48.812;9.232;2023-05-02T00:20:34;10.90;99.90
4461;DHT22;2243;48.812;9.232;2023-05-02T00:23:05;10.80;99.90
4461;DHT22;2243;48.812;9.232;2023-05-02T00:25:35;10.80;99.90
4461;DHT22;2243;48.812;9.232;2023-05-02T00:28:06;10.80;99.90
4461;DHT22;2243;48.812;9.232;2023-05-02T00:30:42;10.70;99.90
4461;DHT22;2243;48.812;9.232;2023-05-02T00:33:14;10.70;99.90
4461;DHT22;2243;48.812;9.232;2023-05-02T00:35:45;10.60;99.90
4461;DHT22;2243;48.812;9.232;2023-05-02T00:38:16;10.60;99.90
4461;DHT22;2243;48.812;9.232;2023-05-02T00:40:50;10.50;99.90
4461;DHT22;2243;48.812;9.232;2023-05-02T00:43:23;10.40;99.90
4461;DHT22;2243;48.812;9.232;2023-05-02T00:45:54;10.40;99.90
4461;DHT22;2243;48.812;9.232;2023-05-02T00:48:25;10.40;99.90
4461;DHT22;2243;48.812;9.232;2023-05-02T00:50:57;10.40;99.90
4461;DHT22;2243;48.812;9.232;2023-05-02T00:53:28;10.40;99.90
4461;DHT22;2243;48.812;9.232;2023-05-02T00:56:01;10.30;99.90
4461;DHT22;2243;48.812;9.232;2023-05-02T00:58:32;10.30;99.90
4461;DHT22;2243;48.812;9.232;2023-05-02T01:01:10;10.30;99.90
4461;DHT22;2243;48.812;9.232;2023-05-02T01:07:15;10.40;99.90
4461;DHT22;2243;48.812;9.232;2023-05-02T01:10:30;10.40;99.90
4461;DHT22;2243;48.812;9.232;2023-05-02T01:13:30;10.30;99.90
4461;DHT22;2243;48.812;9.232;2023-05-02T01:16:05;10.30;99.90
4461;DHT22;2243;48.812;9.232;2023-05-02T01:18:39;10.30;99.90
4461;DHT22;2243;48.812;9.232;2023-05-02T01:21:11;10.40;99.90
4461;DHT22;2243;48.812;9.232;2023-05-02T01:23:56;10.40;99.90
4461;DHT22;2243;48.812;9.232;2023-05-02T01:26:40;10.50;99.90
4461;DHT22;2243;48.812;9.232;2023-05-02T01:29:17;10.50;99.90
4461;DHT22;2243;48.812;9.232;2023-05-02T01:31:49;10.60;99.90
4461;DHT22;2243;48.812;9.232;2023-05-02T01:34:22;10.60;99.90
4461;DHT22;2243;48.812;9.232;2023-05-02T01:36:55;10.60;99.90
4461;DHT22;2243;48.812;9.232;2023-05-02T01:39:28;10.60;99.90
4461;DHT22;2243;48.812;9.232;2023-05-02T01:42:01;10.70;99.90
4461;DHT22;2243;48.812;9.232;2023-05-02T01:44:33;10.60;99.90
4461;DHT22;2243;48.812;9.232;2023-05-02T01:47:06;10.60;99.90
4461;DHT22;2243;48.812;9.232;2023-05-02T01:49:40;10.70;99.90
4461;DHT22;2243;48.812;9.232;2023-05-02T01:52:13;10.60;99.90
4461;DHT22;2243;48.812;9.232;2023-05-02T01:54:45;10.60;99.90
4461;DHT22;2243;48.812;9.232;2023-05-02T01:57:17;10.60;99.90
4461;DHT22;2243;48.812;9.232;2023-05-02T01:59:49;10.50;99.90
4461;DHT22;2243;48.812;9.232;2023-05-02T02:02:26;10.60;99.90
4461;DHT22;2243;48.812;9.232;2023-05-02T02:04:58;10.50;99.90
4461;DHT22;2243;48.812;9.232;2023-05-02T02:07:29;10.60;99.90
4461;DHT22;2243;48.812;9.232;2023-05-02T02:10:00;10.50;99.90
4461;DHT22;2243;48.812;9.232;2023-05-02T02:12:39;10.50;99.90
4461;DHT22;2243;48.812;9.232;2023-05-02T02:17:57;10.40;99.90
4461;DHT22;2243;48.812;9.232;2023-05-02T02:20:31;10.50;99.90
4461;DHT22;2243;48.812;9.232;2023-05-02T02:23:05;10.60;99.90
4461;DHT22;2243;48.812;9.232;2023-05-02T02:25:39;10.50;99.90
4461;DHT22;2243;48.812;9.232;2023-05-02T02:28:10;10.40;99.90
4461;DHT22;2243;48.812;9.232;2023-05-02T02:30:41;10.40;99.90
4461;DHT22;2243;48.812;9.232;2023-05-02T02:33:12;10.20;99.90
4461;DHT22;2243;48.812;9.232;2023-05-02T02:35:50;10.10;99.90
4461;DHT22;2243;48.812;9.232;2023-05-02T02:38:49;10.10;99.90
4461;DHT22;2243;48.812;9.232;2023-05-02T02:41:37;10.00;99.90
4461;DHT22;2243;48.812;9.232;2023-05-02T02:44:32;10.00;99.90
4461;DHT22;2243;48.812;9.232;2023-05-02T02:50:08;9.90;99.90
4461;DHT22;2243;48.812;9.232;2023-05-02T02:53:07;9.80;99.90
4461;DHT22;2243;48.812;9.232;2023-05-02T02:55:47;9.80;99.90
4461;DHT22;2243;48.812;9.232;2023-05-02T03:01:14;9.80;99.90
4461;DHT22;2243;48.812;9.232;2023-05-02T03:03:47;9.70;99.90
4461;DHT22;2243;48.812;9.232;2023-05-02T03:06:19;9.70;99.90
4461;DHT22;2243;48.812;9.232;2023-05-02T03:08:51;9.60;99.90
4461;DHT22;2243;48.812;9.232;2023-05-02T03:11:21;9.60;99.90
4461;DHT22;2243;48.812;9.232;2023-05-02T03:13:52;9.50;99.90
4461;DHT22;2243;48.812;9.232;2023-05-02T03:16:37;9.50;99.90
4461;DHT22;2243;48.812;9.232;2023-05-02T03:19:09;9.50;99.90
4461;DHT22;2243;48.812;9.232;2023-05-02T03:21:40;9.40;99.90
4461;DHT22;2243;48.812;9.232;2023-05-02T03:24:11;9.30;99.90
4461;DHT22;2243;48.812;9.232;2023-05-02T03:26:42;9.30;99.90
4461;DHT22;2243;48.812;9.232;2023-05-02T03:29:13;9.20;99.90
4461;DHT22;2243;48.812;9.232;2023-05-02T03:31:45;9.30;99.90
4461;DHT22;2243;48.812;9.232;2023-05-02T03:34:16;9.20;99.90
4461;DHT22;2243;48.812;9.232;2023-05-02T03:36:48;9.20;99.90
4461;DHT22;2243;48.812;9.232;2023-05-02T03:39:19;9.10;99.90
4461;DHT22;2243;48.812;9.232;2023-05-02T03:41:50;9.20;99.90
4461;DHT22;2243;48.812;9.232;2023-05-02T03:44:21;9.20;99.90
4461;DHT22;2243;48.812;9.232;2023-05-02T03:46:52;9.30;99.90
4461;DHT22;2243;48.812;9.232;2023-05-02T03:49:23;9.40;99.90
4461;DHT22;2243;48.812;9.232;2023-05-02T03:51:54;9.40;99.90
4461;DHT22;2243;48.812;9.232;2023-05-02T03:54:25;9.50;99.90
4461;DHT22;2243;48.812;9.232;2023-05-02T03:56:55;9.50;99.90
4461;DHT22;2243;48.812;9.232;2023-05-02T03:59:27;9.50;99.90
4461;DHT22;2243;48.812;9.232;2023-05-02T04:01:59;9.60;99.90
4461;DHT22;2243;48.812;9.232;2023-05-02T04:04:31;9.60;99.90
4461;DHT22;2243;48.812;9.232;2023-05-02T04:07:02;9.60;99.90
4461;DHT22;2243;48.812;9.232;2023-05-02T04:09:34;9.70;99.90
4461;DHT22;2243;48.812;9.232;2023-05-02T04:12:05;9.80;99.90
4461;DHT22;2243;48.812;9.232;2023-05-02T04:14:36;9.90;99.90
4461;DHT22;2243;48.812;9.232;2023-05-02T04:17:07;9.90;99.90
4461;DHT22;2243;48.812;9.232;2023-05-02T04:19:38;10.10;99.90
4461;DHT22;2243;48.812;9.232;2023-05-02T04:22:09;10.10;99.90
4461;DHT22;2243;48.812;9.232;2023-05-02T04:24:40;10.20;99.90
4461;DHT22;2243;48.812;9.232;2023-05-02T04:27:11;10.30;99.90
4461;DHT22;2243;48.812;9.232;2023-05-02T04:29:48;10.30;99.90
4461;DHT22;2243;48.812;9.232;2023-05-02T04:32:20;10.40;99.90
4461;DHT22;2243;48.812;9.232;2023-05-02T04:34:51;10.30;99.90
4461;DHT22;2243;48.812;9.232;2023-05-02T04:37:21;10.30;99.90
4461;DHT22;2243;48.812;9.232;2023-05-02T04:39:52;10.30;99.90
4461;DHT22;2243;48.812;9.232;2023-05-02T04:42:23;10.30;99.90
4461;DHT22;2243;48.812;9.232;2023-05-02T04:44:54;10.40;99.90
4461;DHT22;2243;48.812;9.232;2023-05-02T04:47:25;10.40;99.90
4461;DHT22;2243;48.812;9.232;2023-05-02T04:49:56;10.40;99.90
4461;DHT22;2243;48.812;9.232;2023-05-02T04:52:29;10.40;99.90
4461;DHT22;2243;48.812;9.232;2023-05-02T04:55:00;10.40;99.90
4461;DHT22;2243;48.812;9.232;2023-05-02T04:57:31;10.40;99.90
4461;DHT22;2243;48.812;9.232;2023-05-02T05:00:01;10.50;99.90
4461;DHT22;2243;48.812;9.232;2023-05-02T05:02:33;10.40;99.90
4461;DHT22;2243;48.812;9.232;2023-05-02T05:05:05;10.50;99.90
4461;DHT22;2243;48.812;9.232;2023-05-02T05:07:36;10.50;99.90
4461;DHT22;2243;48.812;9.232;2023-05-02T05:10:07;10.60;99.90
4461;DHT22;2243;48.812;9.232;2023-05-02T05:12:40;10.60;99.90
4461;DHT22;2243;48.812;9.232;2023-05-02T05:15:11;10.70;99.90
4461;DHT22;2243;48.812;9.232;2023-05-02T05:17:42;10.70;99.90
4461;DHT22;2243;48.812;9.232;2023-05-02T05:20:13;10.70;99.90
4461;DHT22;2243;48.812;9.232;2023-05-02T05:22:44;10.70;99.90
4461;DHT22;2243;48.812;9.232;2023-05-02T05:25:15;10.70;99.90
4461;DHT22;2243;48.812;9.232;2023-05-02T05:27:46;10.90;99.90
4461;DHT22;2243;48.812;9.232;2023-05-02T05:30:17;10.90;99.90
4461;DHT22;2243;48.812;9.232;2023-05-02T05:32:49;11.00;99.90
4461;DHT22;2243;48.812;9.232;2023-05-02T05:35:20;11.10;99.90
4461;DHT22;2243;48.812;9.232;2023-05-02T05:37:50;11.20;99.90
4461;DHT22;2243;48.812;9.232;2023-05-02T05:40:21;11.30;99.90
4461;DHT22;2243;48.812;9.232;2023-05-02T05:42:52;11.30;99.90
4461;DHT22;2243;48.812;9.232;2023-05-02T05:45:23;11.40;99.90
4461;DHT22;2243;48.812;9.232;2023-05-02T05:47:54;11.50;99.90
4461;DHT22;2243;48.812;9.232;2023-05-02T05:50:25;11.60;99.90
4461;DHT22;2243;48.812;9.232;2023-05-02T05:52:56;11.70;99.90
4461;DHT22;2243;48.812;9.232;2023-05-02T05:55:27;11.70;99.90
4461;DHT22;2243;48.812;9.232;2023-05-02T05:57:58;11.70;99.90
4461;DHT22;2243;48.812;9.232;2023-05-02T06:00:29;11.70;99.90
4461;DHT22;2243;48.812;9.232;2023-05-02T06:03:00;11.60;99.90
4461;DHT22;2243;48.812;9.232;2023-05-02T06:05:32;11.70;99.90
4461;DHT22;2243;48.812;9.232;2023-05-02T06:08:03;11.80;99.90
4461;DHT22;2243;48.812;9.232;2023-05-02T06:10:34;11.90;99.90
4461;DHT22;2243;48.812;9.232;2023-05-02T06:13:05;12.00;99.90
4461;DHT22;2243;48.812;9.232;2023-05-02T06:15:36;12.20;99.90
4461;DHT22;2243;48.812;9.232;2023-05-02T06:18:07;12.10;99.90
4461;DHT22;2243;48.812;9.232;2023-05-02T06:20:38;12.20;99.90
4461;DHT22;2243;48.812;9.232;2023-05-02T06:23:09;12.30;99.90
4461;DHT22;2243;48.812;9.232;2023-05-02T06:25:40;12.30;99.90
4461;DHT22;2243;48.812;9.232;2023-05-02T06:28:11;12.20;99.90
4461;DHT22;2243;48.812;9.232;2023-05-02T06:30:41;12.10;99.90
4461;DHT22;2243;48.812;9.232;2023-05-02T06:33:12;12.10;99.90
4461;DHT22;2243;48.812;9.232;2023-05-02T06:35:50;12.20;99.90
4461;DHT22;2243;48.812;9.232;2023-05-02T06:38:22;12.20;99.90
4461;DHT22;2243;48.812;9.232;2023-05-02T06:40:53;12.30;99.90
4461;DHT22;2243;48.812;9.232;2023-05-02T06:43:24;12.40;99.90
4461;DHT22;2243;48.812;9.232;2023-05-02T06:45:55;12.30;99.90
4461;DHT22;2243;48.812;9.232;2023-05-02T06:48:27;12.40;99.90
4461;DHT22;2243;48.812;9.232;2023-05-02T06:50:57;12.50;99.90
4461;DHT22;2243;48.812;9.232;2023-05-02T06:53:29;12.60;99.90
4461;DHT22;2243;48.812;9.232;2023-05-02T06:56:02;12.70;99.90
4461;DHT22;2243;48.812;9.232;2023-05-02T06:58:35;12.70;99.90
4461;DHT22;2243;48.812;9.232;2023-05-02T07:01:06;12.70;99.90
4461;DHT22;2243;48.812;9.232;2023-05-02T07:03:37;12.60;99.90
4461;DHT22;2243;48.812;9.232;2023-05-02T07:06:08;12.80;99.90
4461;DHT22;2243;48.812;9.232;2023-05-02T07:08:39;12.80;99.90
4461;DHT22;2243;48.812;9.232;2023-05-02T07:11:10;12.80;99.90
4461;DHT22;2243;48.812;9.232;2023-05-02T07:13:41;12.90;99.90
4461;DHT22;2243;48.812;9.232;2023-05-02T07:16:12;12.80;99.90
4461;DHT22;2243;48.812;9.232;2023-05-02T07:18:44;12.80;99.90
4461;DHT22;2243;48.812;9.232;2023-05-02T07:21:15;12.80;99.90
4461;DHT22;2243;48.812;9.232;2023-05-02T07:23:48;12.70;99.90
4461;DHT22;2243;48.812;9.232;2023-05-02T07:26:19;12.70;99.90
4461;DHT22;2243;48.812;9.232;2023-05-02T07:28:50;12.70;99.90
4461;DHT22;2243;48.812;9.232;2023-05-02T07:31:21;12.80;99.90
4461;DHT22;2243;48.812;9.232;2023-05-02T07:33:52;12.90;99.90
4461;DHT22;2243;48.812;9.232;2023-05-02T07:36:23;12.90;99.90
4461;DHT22;2243;48.812;9.232;2023-05-02T07:38:54;12.80;99.90
4461;DHT22;2243;48.812;9.232;2023-05-02T07:41:25;12.80;99.90
4461;DHT22;2243;48.812;9.232;2023-05-02T07:43:56;12.80;99.90
4461;DHT22;2243;48.812;9.232;2023-05-02T07:46:27;12.80;99.90
4461;DHT22;2243;48.812;9.232;2023-05-02T07:48:58;12.70;99.90
4461;DHT22;2243;48.812;9.232;2023-05-02T07:51:29;12.80;99.90
4461;DHT22;2243;48.812;9.232;2023-05-02T07:53:59;12.90;99.90
4461;DHT22;2243;48.812;9.232;2023-05-02T07:56:31;13.10;99.90
4461;DHT22;2243;48.812;9.232;2023-05-02T07:59:02;13.30;99.90
4461;DHT22;2243;48.812;9.232;2023-05-02T08:01:35;13.30;99.90
4461;DHT22;2243;48.812;9.232;2023-05-02T08:04:07;13.20;99.90
4461;DHT22;2243;48.812;9.232;2023-05-02T08:06:40;13.30;99.90
4461;DHT22;2243;48.812;9.232;2023-05-02T08:09:11;13.40;99.90
4461;DHT22;2243;48.812;9.232;2023-05-02T08:11:42;13.40;99.90
4461;DHT22;2243;48.812;9.232;2023-05-02T08:14:14;13.20;99.90
4461;DHT22;2243;48.812;9.232;2023-05-02T08:16:46;13.20;99.90
4461;DHT22;2243;48.812;9.232;2023-05-02T08:19:17;13.20;99.90
4461;DHT22;2243;48.812;9.232;2023-05-02T08:21:48;13.30;99.90
4461;DHT22;2243;48.812;9.232;2023-05-02T08:24:19;13.40;99.90
4461;DHT22;2243;48.812;9.232;2023-05-02T08:26:49;13.40;99.90
4461;DHT22;2243;48.812;9.232;2023-05-02T08:29:21;13.40;99.90
4461;DHT22;2243;48.812;9.232;2023-05-02T08:31:53;13.50;99.90
4461;DHT22;2243;48.812;9.232;2023-05-02T08:34:24;13.50;99.90
4461;DHT22;2243;48.812;9.232;2023-05-02T08:36:55;13.60;99.90
4461;DHT22;2243;48.812;9.232;2023-05-02T08:39:31;13.70;99.90
4461;DHT22;2243;48.812;9.232;2023-05-02T08:42:06;13.70;99.90
4461;DHT22;2243;48.812;9.232;2023-05-02T08:44:37;13.70;99.90
4461;DHT22;2243;48.812;9.232;2023-05-02T08:47:10;13.80;99.90
4461;DHT22;2243;48.812;9.232;2023-05-02T08:49:44;13.90;99.90
4461;DHT22;2243;48.812;9.232;2023-05-02T08:52:16;14.00;99.90
4461;DHT22;2243;48.812;9.232;2023-05-02T08:54:49;14.00;99.90
4461;DHT22;2243;48.812;9.232;2023-05-02T08:57:21;14.00;99.90
4461;DHT22;2243;48.812;9.232;2023-05-02T08:59:52;14.10;99.90
4461;DHT22;2243;48.812;9.232;2023-05-02T09:02:49;14.20;99.90
4461;DHT22;2243;48.812;9.232;2023-05-02T09:05:28;14.40;99.90
4461;DHT22;2243;48.812;9.232;2023-05-02T09:08:03;14.40;99.90
4461;DHT22;2243;48.812;9.232;2023-05-02T09:10:35;14.60;99.90
4461;DHT22;2243;48.812;9.232;2023-05-02T09:16:18;14.70;99.90
4461;DHT22;2243;48.812;9.232;2023-05-02T09:18:54;14.70;99.90
4461;DHT22;2243;48.812;9.232;2023-05-02T09:21:37;14.70;99.90
4461;DHT22;2243;48.812;9.232;2023-05-02T09:24:20;14.90;99.90
4461;DHT22;2243;48.812;9.232;2023-05-02T09:27:10;14.90;99.90
4461;DHT22;2243;48.812;9.232;2023-05-02T09:29:41;15.00;99.90
4461;DHT22;2243;48.812;9.232;2023-05-02T09:32:15;15.10;99.90
4461;DHT22;2243;48.812;9.232;2023-05-02T09:35:03;15.20;99.90
4461;DHT22;2243;48.812;9.232;2023-05-02T09:37:36;15.10;99.90
4461;DHT22;2243;48.812;9.232;2023-05-02T09:40:07;15.10;99.90
4461;DHT22;2243;48.812;9.232;2023-05-02T09:42:39;15.20;99.90
4461;DHT22;2243;48.812;9.232;2023-05-02T09:45:27;15.30;99.90
4461;DHT22;2243;48.812;9.232;2023-05-02T09:48:01;15.40;99.90
4461;DHT22;2243;48.812;9.232;2023-05-02T09:50:36;15.60;99.90
4461;DHT22;2243;48.812;9.232;2023-05-02T09:53:08;15.60;99.90
4461;DHT22;2243;48.812;9.232;2023-05-02T09:55:40;15.60;99.90
4461;DHT22;2243;48.812;9.232;2023-05-02T09:58:22;15.60;99.90
4461;DHT22;2243;48.812;9.232;2023-05-02T10:00:53;15.70;99.90
4461;DHT22;2243;48.812;9.232;2023-05-02T10:03:26;15.80;99.90
4461;DHT22;2243;48.812;9.232;2023-05-02T10:05:57;15.80;99.90
4461;DHT22;2243;48.812;9.232;2023-05-02T10:08:28;15.90;99.90
4461;DHT22;2243;48.812;9.232;2023-05-02T10:11:04;15.80;99.90
4461;DHT22;2243;48.812;9.232;2023-05-02T10:13:37;15.70;99.90
4461;DHT22;2243;48.812;9.232;2023-05-02T10:16:14;15.60;99.90
4461;DHT22;2243;48.812;9.232;2023-05-02T10:19:02;15.60;99.90
4461;DHT22;2243;48.812;9.232;2023-05-02T10:21:42;15.60;99.90
4461;DHT22;2243;48.812;9.232;2023-05-02T10:24:14;15.70;99.90
4461;DHT22;2243;48.812;9.232;2023-05-02T10:26:46;15.90;99.90
4461;DHT22;2243;48.812;9.232;2023-05-02T10:29:18;16.00;99.90
4461;DHT22;2243;48.812;9.232;2023-05-02T10:31:49;16.00;99.90
4461;DHT22;2243;48.812;9.232;2023-05-02T10:34:21;15.90;99.90
4461;DHT22;2243;48.812;9.232;2023-05-02T10:36:54;16.00;99.90
4461;DHT22;2243;48.812;9.232;2023-05-02T10:39:26;16.20;99.90
4461;DHT22;2243;48.812;9.232;2023-05-02T10:41:58;16.30;99.90
4461;DHT22;2243;48.812;9.232;2023-05-02T10:44:36;16.50;99.90
4461;DHT22;2243;48.812;9.232;2023-05-02T10:47:21;16.80;99.90
4461;DHT22;2243;48.812;9.232;2023-05-02T10:50:01;17.00;99.90
4461;DHT22;2243;48.812;9.232;2023-05-02T10:52:35;17.20;99.90
4461;DHT22;2243;48.812;9.232;2023-05-02T10:55:34;17.30;99.90
4461;DHT22;2243;48.812;9.232;2023-05-02T11:00:36;17.60;99.90
4461;DHT22;2243;48.812;9.232;2023-05-02T11:03:07;17.70;99.90
4461;DHT22;2243;48.812;9.232;2023-05-02T11:06:04;17.80;99.90
4461;DHT22;2243;48.812;9.232;2023-05-02T11:08:39;17.80;99.90
4461;DHT22;2243;48.812;9.232;2023-05-02T11:11:42;17.60;99.90
4461;DHT22;2243;48.812;9.232;2023-05-02T11:24:51;19.70;97.50
4461;DHT22;2243;48.812;9.232;2023-05-02T11:30:01;19.10;98.60
4461;DHT22;2243;48.812;9.232;2023-05-02T11:35:21;19.80;97.30
4461;DHT22;2243;48.812;9.232;2023-05-02T11:38:01;19.80;97.20
4461;DHT22;2243;48.812;9.232;2023-05-02T11:40:33;19.60;98.40
4461;DHT22;2243;48.812;9.232;2023-05-02T11:43:15;19.60;98.40
4461;DHT22;2243;48.812;9.232;2023-05-02T11:45:47;20.00;96.50
4461;DHT22;2243;48.812;9.232;2023-05-02T11:48:20;19.90;98.10
4461;DHT22;2243;48.812;9.232;2023-05-02T11:50:56;19.60;97.50
4461;DHT22;2243;48.812;9.232;2023-05-02T11:53:28;19.50;97.70
4461;DHT22;2243;48.812;9.232;2023-05-02T11:56:01;19.70;96.40
4461;DHT22;2243;48.812;9.232;2023-05-02T11:58:33;19.90;94.80
4461;DHT22;2243;48.812;9.232;2023-05-02T12:01:14;19.30;95.20
4461;DHT22;2243;48.812;9.232;2023-05-02T12:03:46;19.00;96.30
4461;DHT22;2243;48.812;9.232;2023-05-02T12:06:19;18.80;97.10
4461;DHT22;2243;48.812;9.232;2023-05-02T12:08:50;18.90;97.20
4461;DHT22;2243;48.812;9.232;2023-05-02T12:11:25;19.20;96.70
4461;DHT22;2243;48.812;9.232;2023-05-02T12:13:57;19.40;95.50
4461;DHT22;2243;48.812;9.232;2023-05-02T12:16:28;19.20;96.20
4461;DHT22;2243;48.812;9.232;2023-05-02T12:18:59;19.00;96.60
4461;DHT22;2243;48.812;9.232;2023-05-02T12:21:31;18.90;96.70
4461;DHT22;2243;48.812;9.232;2023-05-02T12:24:03;19.20;96.40
4461;DHT22;2243;48.812;9.232;2023-05-02T12:26:34;19.60;96.60
4461;DHT22;2243;48.812;9.232;2023-05-02T12:29:05;19.60;95.50
4461;DHT22;2243;48.812;9.232;2023-05-02T12:31:37;19.20;95.70
4461;DHT22;2243;48.812;9.232;2023-05-02T12:34:09;19.00;96.00
4461;DHT22;2243;48.812;9.232;2023-05-02T12:36:43;19.00;97.00
4461;DHT22;2243;48.812;9.232;2023-05-02T12:39:14;18.70;98.10
4461;DHT22;2243;48.812;9.232;2023-05-02T12:41:45;18.60;99.60
4461;DHT22;2243;48.812;9.232;2023-05-02T12:44:35;18.70;99.90
4461;DHT22;2243;48.812;9.232;2023-05-02T12:47:08;19.00;99.10
4461;DHT22;2243;48.812;9.232;2023-05-02T12:49:57;19.20;98.70
4461;DHT22;2243;48.812;9.232;2023-05-02T12:52:48;19.40;98.40
4461;DHT22;2243;48.812;9.232;2023-05-02T12:55:22;19.80;97.30
4461;DHT22;2243;48.812;9.232;2023-05-02T13:00:38;19.60;97.60
4461;DHT22;2243;48.812;9.232;2023-05-02T13:03:11;19.50;97.50
4461;DHT22;2243;48.812;9.232;2023-05-02T13:05:42;19.60;97.40
4461;DHT22;2243;48.812;9.232;2023-05-02T13:08:13;19.50;97.50
4461;DHT22;2243;48.812;9.232;2023-05-02T13:10:44;19.60;97.40
4461;DHT22;2243;48.812;9.232;2023-05-02T13:13:15;19.50;97.90
4461;DHT22;2243;48.812;9.232;2023-05-02T13:15:47;19.30;98.80
4461;DHT22;2243;48.812;9.232;2023-05-02T13:18:18;19.20;98.60
4461;DHT22;2243;48.812;9.232;2023-05-02T13:20:49;19.30;98.80
4461;DHT22;2243;48.812;9.232;2023-05-02T13:23:19;19.40;97.40
4461;DHT22;2243;48.812;9.232;2023-05-02T13:25:50;19.50;96.50
4461;DHT22;2243;48.812;9.232;2023-05-02T13:28:21;19.40;96.40
4461;DHT22;2243;48.812;9.232;2023-05-02T13:30:53;19.30;96.20
4461;DHT22;2243;48.812;9.232;2023-05-02T13:33:23;19.50;95.50
4461;DHT22;2243;48.812;9.232;2023-05-02T13:35:54;19.60;95.30
4461;DHT22;2243;48.812;9.232;2023-05-02T13:38:25;19.70;95.90
4461;DHT22;2243;48.812;9.232;2023-05-02T13:40:56;19.80;96.00
4461;DHT22;2243;48.812;9.232;2023-05-02T13:43:27;20.00;95.40
4461;DHT22;2243;48.812;9.232;2023-05-02T13:45:58;20.00;94.60
4461;DHT22;2243;48.812;9.232;2023-05-02T13:48:29;19.80;94.20
4461;DHT22;2243;48.812;9.232;2023-05-02T13:51:00;19.70;95.00
4461;DHT22;2243;48.812;9.232;2023-05-02T13:53:31;19.90;95.10
4461;DHT22;2243;48.812;9.232;2023-05-02T13:56:02;20.20;94.00
4461;DHT22;2243;48.812;9.232;2023-05-02T13:58:33;20.50;93.50
4461;DHT22;2243;48.812;9.232;2023-05-02T14:01:04;20.60;93.80
4461;DHT22;2243;48.812;9.232;2023-05-02T14:03:35;20.80;93.20
4461;DHT22;2243;48.812;9.232;2023-05-02T14:06:06;21.20;94.40
4461;DHT22;2243;48.812;9.232;2023-05-02T14:08:37;21.60;94.50
4461;DHT22;2243;48.812;9.232;2023-05-02T14:11:08;21.70;93.70
4461;DHT22;2243;48.812;9.232;2023-05-02T14:13:39;21.70;94.00
4461;DHT22;2243;48.812;9.232;2023-05-02T14:16:10;21.80;94.00
4461;DHT22;2243;48.812;9.232;2023-05-02T14:18:41;21.90;93.20
4461;DHT22;2243;48.812;9.232;2023-05-02T14:21:12;21.90;93.40
4461;DHT22;2243;48.812;9.232;2023-05-02T14:23:43;21.80;93.10
4461;DHT22;2243;48.812;9.232;2023-05-02T14:26:14;21.80;92.80
4461;DHT22;2243;48.812;9.232;2023-05-02T14:28:45;22.00;92.70
4461;DHT22;2243;48.812;9.232;2023-05-02T14:31:16;21.90;92.40
4461;DHT22;2243;48.812;9.232;2023-05-02T14:33:47;21.90;92.50
4461;DHT22;2243;48.812;9.232;2023-05-02T14:36:18;22.10;92.20
4461;DHT22;2243;48.812;9.232;2023-05-02T14:38:49;22.10;92.30
4461;DHT22;2243;48.812;9.232;2023-05-02T14:41:20;22.20;91.60
4461;DHT22;2243;48.812;9.232;2023-05-02T14:43:51;21.80;91.90
4461;DHT22;2243;48.812;9.232;2023-05-02T14:46:23;21.60;92.10
4461;DHT22;2243;48.812;9.232;2023-05-02T14:48:54;21.10;92.00
4461;DHT22;2243;48.812;9.232;2023-05-02T14:51:25;20.90;92.20
4461;DHT22;2243;48.812;9.232;2023-05-02T14:53:56;20.80;92.30
4461;DHT22;2243;48.812;9.232;2023-05-02T14:56:27;20.80;92.50
4461;DHT22;2243;48.812;9.232;2023-05-02T14:58:58;20.70;91.90
4461;DHT22;2243;48.812;9.232;2023-05-02T15:01:29;20.70;91.90
4461;DHT22;2243;48.812;9.232;2023-05-02T15:04:00;20.90;91.60
4461;DHT22;2243;48.812;9.232;2023-05-02T15:06:37;20.90;90.90
4461;DHT22;2243;48.812;9.232;2023-05-02T15:09:09;21.20;91.10
4461;DHT22;2243;48.812;9.232;2023-05-02T15:11:42;21.20;90.10
4461;DHT22;2243;48.812;9.232;2023-05-02T15:14:13;21.20;90.00
4461;DHT22;2243;48.812;9.232;2023-05-02T15:16:44;21.40;88.10
4461;DHT22;2243;48.812;9.232;2023-05-02T15:19:16;21.60;89.20
4461;DHT22;2243;48.812;9.232;2023-05-02T15:21:47;21.60;86.70
4461;DHT22;2243;48.812;9.232;2023-05-02T15:24:19;21.70;85.20
4461;DHT22;2243;48.812;9.232;2023-05-02T15:26:50;21.80;85.50
4461;DHT22;2243;48.812;9.232;2023-05-02T15:29:22;21.90;86.70
4461;DHT22;2243;48.812;9.232;2023-05-02T15:31:53;22.10;87.60
4461;DHT22;2243;48.812;9.232;2023-05-02T15:34:24;22.10;86.40
4461;DHT22;2243;48.812;9.232;2023-05-02T15:36:58;21.80;86.60
4461;DHT22;2243;48.812;9.232;2023-05-02T15:39:30;21.90;85.30
4461;DHT22;2243;48.812;9.232;2023-05-02T15:42:02;21.90;84.80
4461;DHT22;2243;48.812;9.232;2023-05-02T15:44:34;21.90;84.30
4461;DHT22;2243;48.812;9.232;2023-05-02T15:47:08;21.90;85.50
4461;DHT22;2243;48.812;9.232;2023-05-02T15:49:39;21.70;86.50
4461;DHT22;2243;48.812;9.232;2023-05-02T15:52:10;21.90;86.20
4461;DHT22;2243;48.812;9.232;2023-05-02T15:54:41;22.10;85.60
4461;DHT22;2243;48.812;9.232;2023-05-02T15:57:12;22.40;84.80
4461;DHT22;2243;48.812;9.232;2023-05-02T15:59:43;22.40;82.20
4461;DHT22;2243;48.812;9.232;2023-05-02T16:02:14;22.40;79.40
4461;DHT22;2243;48.812;9.232;2023-05-02T16:04:45;22.50;78.30
4461;DHT22;2243;48.812;9.232;2023-05-02T16:07:16;22.50;78.40
4461;DHT22;2243;48.812;9.232;2023-05-02T16:09:47;22.30;77.80
4461;DHT22;2243;48.812;9.232;2023-05-02T16:12:18;22.50;78.40
4461;DHT22;2243;48.812;9.232;2023-05-02T16:14:49;22.60;77.10
4461;DHT22;2243;48.812;9.232;2023-05-02T16:17:19;22.30;77.40
4461;DHT22;2243;48.812;9.232;2023-05-02T16:19:51;22.40;77.90
4461;DHT22;2243;48.812;9.232;2023-05-02T16:22:22;22.30;78.50
4461;DHT22;2243;48.812;9.232;2023-05-02T16:24:54;22.20;77.20
4461;DHT22;2243;48.812;9.232;2023-05-02T16:27:25;22.10;77.40
4461;DHT22;2243;48.812;9.232;2023-05-02T16:29:57;22.10;77.70
4461;DHT22;2243;48.812;9.232;2023-05-02T16:32:28;22.20;76.70
4461;DHT22;2243;48.812;9.232;2023-05-02T16:35:00;21.90;77.20
4461;DHT22;2243;48.812;9.232;2023-05-02T16:37:35;21.80;79.30
4461;DHT22;2243;48.812;9.232;2023-05-02T16:40:09;21.90;80.20
4461;DHT22;2243;48.812;9.232;2023-05-02T16:42:41;21.80;79.60
4461;DHT22;2243;48.812;9.232;2023-05-02T16:45:12;22.00;80.20
4461;DHT22;2243;48.812;9.232;2023-05-02T16:47:44;22.30;76.60
4461;DHT22;2243;48.812;9.232;2023-05-02T16:50:15;22.40;76.90
4461;DHT22;2243;48.812;9.232;2023-05-02T16:52:46;22.50;76.60
4461;DHT22;2243;48.812;9.232;2023-05-02T16:55:17;22.60;76.60
4461;DHT22;2243;48.812;9.232;2023-05-02T16:57:48;22.60;76.50
4461;DHT22;2243;48.812;9.232;2023-05-02T17:00:19;22.90;75.60
4461;DHT22;2243;48.812;9.232;2023-05-02T17:02:50;22.80;74.90
4461;DHT22;2243;48.812;9.232;2023-05-02T17:05:24;22.60;74.70
4461;DHT22;2243;48.812;9.232;2023-05-02T17:07:56;22.60;75.20
4461;DHT22;2243;48.812;9.232;2023-05-02T17:10:26;22.40;72.20
4461;DHT22;2243;48.812;9.232;2023-05-02T17:12:58;22.40;72.00
4461;DHT22;2243;48.812;9.232;2023-05-02T17:15:29;22.30;71.60